sensor_id;sensor_type;location;lat;lon;timestamp;P1;P2;P0
69349;PMS5003;64554;43.452;4.934;2023-06-10T00:00:38;15.00;13.20;9.00
69349;PMS5003;64554;43.452;4.934;2023-06-10T00:03:07;11.00;11.00;9.00
69349;PMS5003;64554;43.452;4.934;2023-06-10T00:05:35;19.33;17.33;9.00
69349;PMS5003;64554;43.452;4.934;2023-06-10T00:08:02;15.00;15.00;8.00
69349;PMS5003;64554;43.452;4.934;2023-06-10T00:10:34;14.60;13.60;9.00
69349;PMS5003;64554;43.452;4.934;2023-06-10T00:13:05;13.40;13.40;10.20
69349;PMS5003;64554;43.452;4.934;2023-06-10T00:15:34;15.40;15.00;9.40
69349;PMS5003;64554;43.452;4.934;2023-06-10T00:18:02;18.00;15.80;10.00
69349;PMS5003;64554;43.452;4.934;2023-06-10T00:20:30;13.80;13.80;8.80
69349;PMS5003;64554;43.452;4.934;2023-06-10T00:23:00;12.25;12.25;8.00
69349;PMS5003;64554;43.452;4.934;2023-06-10T00:25:27;13.00;13.00;9.20
69349;PMS5003;64554;43.452;4.934;2023-06-10T00:27:54;13.50;13.50;8.75
69349;PMS5003;64554;43.452;4.934;2023-06-10T00:30:21;17.25;14.75;9.50
69349;PMS5003;64554;43.452;4.934;2023-06-10T00:32:48;19.25;18.00;10.50
69349;PMS5003;64554;43.452;4.934;2023-06-10T00:35:14;11.60;11.40;8.20
69349;PMS5003;64554;43.452;4.934;2023-06-10T00:37:41;15.60;15.60;10.00
69349;PMS5003;64554;43.452;4.934;2023-06-10T00:40:07;17.00;16.00;10.00
69349;PMS5003;64554;43.452;4.934;2023-06-10T00:42:35;13.20;13.20;9.60
69349;PMS5003;64554;43.452;4.934;2023-06-10T00:45:02;14.25;14.25;10.25
69349;PMS5003;64554;43.452;4.934;2023-06-10T00:47:29;16.00;16.00;10.00
69349;PMS5003;64554;43.452;4.934;2023-06-10T00:49:57;15.50;15.50;10.00
69349;PMS5003;64554;43.452;4.934;2023-06-10T00:52:25;18.40;17.40;7.40
69349;PMS5003;64554;43.452;4.934;2023-06-10T00:54:53;23.75;22.50;12.00
69349;PMS5003;64554;43.452;4.934;2023-06-10T00:57:22;14.60;14.00;9.60
69349;PMS5003;64554;43.452;4.934;2023-06-10T00:59:49;16.00;13.00;10.00
69349;PMS5003;64554;43.452;4.934;2023-06-10T01:02:15;14.20;13.20;10.00
69349;PMS5003;64554;43.452;4.934;2023-06-10T01:04:42;15.50;14.00;11.00
69349;PMS5003;64554;43.452;4.934;2023-06-10T01:07:25;15.00;15.00;9.50
69349;PMS5003;64554;43.452;4.934;2023-06-10T01:12:41;19.50;19.50;10.00
69349;PMS5003;64554;43.452;4.934;2023-06-10T01:15:15;16.00;16.00;10.75
69349;PMS5003;64554;43.452;4.934;2023-06-10T01:18:29;15.40;14.40;9.40
69349;PMS5003;64554;43.452;4.934;2023-06-10T01:20:36;16.25;13.75;8.25
69349;PMS5003;64554;43.452;4.934;2023-06-10T01:23:07;20.20;15.80;9.00
69349;PMS5003;64554;43.452;4.934;2023-06-10T01:25:36;18.00;17.33;10.00
69349;PMS5003;64554;43.452;4.934;2023-06-10T01:28:07;17.00;17.00;10.00
69349;PMS5003;64554;43.452;4.934;2023-06-10T01:33:25;16.00;16.00;10.20
69349;PMS5003;64554;43.452;4.934;2023-06-10T01:35:53;12.50;12.50;8.00
69349;PMS5003;64554;43.452;4.934;2023-06-10T01:38:20;12.20;11.00;8.00
69349;PMS5003;64554;43.452;4.934;2023-06-10T01:40:48;20.00;19.00;10.20
69349;PMS5003;64554;43.452;4.934;2023-06-10T01:43:15;14.40;14.40;9.80
69349;PMS5003;64554;43.452;4.934;2023-06-10T01:45:41;15.00;14.00;11.00
69349;PMS5003;64554;43.452;4.934;2023-06-10T01:48:08;15.60;13.40;9.00
69349;PMS5003;64554;43.452;4.934;2023-06-10T01:50:35;15.00;13.60;9.60
69349;PMS5003;64554;43.452;4.934;2023-06-10T01:53:01;14.50;13.50;9.50
69349;PMS5003;64554;43.452;4.934;2023-06-10T01:55:28;13.20;12.60;10.00
69349;PMS5003;64554;43.452;4.934;2023-06-10T01:57:55;15.50;12.50;9.00
69349;PMS5003;64554;43.452;4.934;2023-06-10T02:00:21;16.00;15.80;10.80
69349;PMS5003;64554;43.452;4.934;2023-06-10T02:02:48;17.75;16.50;10.00
69349;PMS5003;64554;43.452;4.934;2023-06-10T02:05:15;17.00;17.00;10.00
69349;PMS5003;64554;43.452;4.934;2023-06-10T02:07:41;17.40;14.00;9.00
69349;PMS5003;64554;43.452;4.934;2023-06-10T02:10:08;15.00;14.60;10.00
69349;PMS5003;64554;43.452;4.934;2023-06-10T02:12:35;18.00;15.75;10.00
69349;PMS5003;64554;43.452;4.934;2023-06-10T02:15:01;17.00;17.00;11.00
69349;PMS5003;64554;43.452;4.934;2023-06-10T02:17:28;19.40;18.00;11.00
69349;PMS5003;64554;43.452;4.934;2023-06-10T02:19:55;15.60;15.60;9.00
69349;PMS5003;64554;43.452;4.934;2023-06-10T02:22:23;17.80;15.20;8.20
69349;PMS5003;64554;43.452;4.934;2023-06-10T02:24:49;16.40;14.00;10.00
69349;PMS5003;64554;43.452;4.934;2023-06-10T02:27:16;22.40;22.40;9.80
69349;PMS5003;64554;43.452;4.934;2023-06-10T02:29:44;15.50;15.50;9.75
69349;PMS5003;64554;43.452;4.934;2023-06-10T02:32:10;15.40;15.40;11.00
69349;PMS5003;64554;43.452;4.934;2023-06-10T02:34:37;20.00;19.00;9.00
69349;PMS5003;64554;43.452;4.934;2023-06-10T02:37:04;21.00;19.40;9.00
69349;PMS5003;64554;43.452;4.934;2023-06-10T02:39:30;16.50;16.50;10.00
69349;PMS5003;64554;43.452;4.934;2023-06-10T02:41:59;16.00;12.00;9.00
69349;PMS5003;64554;43.452;4.934;2023-06-10T02:44:26;14.00;14.00;9.00
69349;PMS5003;64554;43.452;4.934;2023-06-10T02:46:53;13.40;13.40;9.00
69349;PMS5003;64554;43.452;4.934;2023-06-10T02:49:19;16.00;15.80;10.00
69349;PMS5003;64554;43.452;4.934;2023-06-10T02:51:46;20.00;20.00;11.00
69349;PMS5003;64554;43.452;4.934;2023-06-10T02:54:13;14.00;14.00;10.00
69349;PMS5003;64554;43.452;4.934;2023-06-10T02:56:40;15.25;15.00;9.25
69349;PMS5003;64554;43.452;4.934;2023-06-10T02:59:08;17.00;16.00;11.00
69349;PMS5003;64554;43.452;4.934;2023-06-10T03:01:34;13.00;13.00;9.00
69349;PMS5003;64554;43.452;4.934;2023-06-10T03:04:06;13.75;13.75;10.00
69349;PMS5003;64554;43.452;4.934;2023-06-10T03:06:33;24.60;22.60;12.20
69349;PMS5003;64554;43.452;4.934;2023-06-10T03:09:00;18.00;17.25;10.25
69349;PMS5003;64554;43.452;4.934;2023-06-10T03:11:27;16.50;14.50;9.00
69349;PMS5003;64554;43.452;4.934;2023-06-10T03:13:53;15.50;15.50;10.00
69349;PMS5003;64554;43.452;4.934;2023-06-10T03:16:20;15.20;14.80;10.20
69349;PMS5003;64554;43.452;4.934;2023-06-10T03:18:46;17.40;15.40;10.40
69349;PMS5003;64554;43.452;4.934;2023-06-10T03:21:13;14.20;14.20;9.40
69349;PMS5003;64554;43.452;4.934;2023-06-10T03:23:40;15.00;15.00;9.60
69349;PMS5003;64554;43.452;4.934;2023-06-10T03:26:07;16.80;16.60;11.40
69349;PMS5003;64554;43.452;4.934;2023-06-10T03:28:34;15.00;15.00;10.00
69349;PMS5003;64554;43.452;4.934;2023-06-10T03:31:01;16.40;15.40;11.00
69349;PMS5003;64554;43.452;4.934;2023-06-10T03:33:28;18.40;14.00;10.20
69349;PMS5003;64554;43.452;4.934;2023-06-10T03:35:54;17.33;14.33;9.33
69349;PMS5003;64554;43.452;4.934;2023-06-10T03:38:21;15.25;13.25;10.00
69349;PMS5003;64554;43.452;4.934;2023-06-10T03:40:47;14.00;13.00;8.00
69349;PMS5003;64554;43.452;4.934;2023-06-10T03:43:14;15.60;14.00;10.00
69349;PMS5003;64554;43.452;4.934;2023-06-10T03:45:40;14.00;14.00;8.80
69349;PMS5003;64554;43.452;4.934;2023-06-10T03:48:07;14.00;14.00;10.00
69349;PMS5003;64554;43.452;4.934;2023-06-10T03:50:35;15.60;15.60;11.20
69349;PMS5003;64554;43.452;4.934;2023-06-10T03:53:02;15.00;12.00;9.00
69349;PMS5003;64554;43.452;4.934;2023-06-10T03:55:29;15.00;14.00;9.00
69349;PMS5003;64554;43.452;4.934;2023-06-10T03:57:55;17.80;16.00;11.00
69349;PMS5003;64554;43.452;4.934;2023-06-10T04:00:22;16.60;15.40;11.60
69349;PMS5003;64554;43.452;4.934;2023-06-10T04:02:48;20.80;17.80;11.20
69349;PMS5003;64554;43.452;4.934;2023-06-10T04:05:18;17.00;17.00;10.50
69349;PMS5003;64554;43.452;4.934;2023-06-10T04:07:47;19.00;16.50;10.75
69349;PMS5003;64554;43.452;4.934;2023-06-10T04:10:14;16.00;15.50;10.00
69349;PMS5003;64554;43.452;4.934;2023-06-10T04:12:41;24.00;19.00;11.25
69349;PMS5003;64554;43.452;4.934;2023-06-10T04:15:08;18.75;15.75;10.75
69349;PMS5003;64554;43.452;4.934;2023-06-10T04:17:35;16.60;16.60;10.80
69349;PMS5003;64554;43.452;4.934;2023-06-10T04:20:02;17.60;16.60;10.00
69349;PMS5003;64554;43.452;4.934;2023-06-10T04:22:30;14.60;14.60;10.40
69349;PMS5003;64554;43.452;4.934;2023-06-10T04:24:57;19.00;17.00;11.00
69349;PMS5003;64554;43.452;4.934;2023-06-10T04:27:23;17.25;16.50;10.00
69349;PMS5003;64554;43.452;4.934;2023-06-10T04:29:50;15.00;15.00;10.00
69349;PMS5003;64554;43.452;4.934;2023-06-10T04:32:17;17.00;14.00;10.50
69349;PMS5003;64554;43.452;4.934;2023-06-10T04:34:43;15.00;15.00;10.00
69349;PMS5003;64554;43.452;4.934;2023-06-10T04:37:10;20.75;18.00;9.75
69349;PMS5003;64554;43.452;4.934;2023-06-10T04:39:36;16.20;15.20;11.20
69349;PMS5003;64554;43.452;4.934;2023-06-10T04:42:04;18.60;14.60;10.60
69349;PMS5003;64554;43.452;4.934;2023-06-10T04:44:32;16.25;16.25;10.00
69349;PMS5003;64554;43.452;4.934;2023-06-10T04:46:58;18.00;18.00;10.00
69349;PMS5003;64554;43.452;4.934;2023-06-10T04:49:25;15.40;14.40;10.80
69349;PMS5003;64554;43.452;4.934;2023-06-10T04:51:52;16.75;16.75;9.00
69349;PMS5003;64554;43.452;4.934;2023-06-10T04:54:18;14.40;14.40;9.60
69349;PMS5003;64554;43.452;4.934;2023-06-10T04:56:45;15.00;15.00;10.60
69349;PMS5003;64554;43.452;4.934;2023-06-10T04:59:11;18.40;13.40;9.00
69349;PMS5003;64554;43.452;4.934;2023-06-10T05:01:38;14.50;13.00;8.25
69349;PMS5003;64554;43.452;4.934;2023-06-10T05:04:04;20.00;19.20;11.20
69349;PMS5003;64554;43.452;4.934;2023-06-10T05:06:31;14.40;12.80;9.20
69349;PMS5003;64554;43.452;4.934;2023-06-10T05:08:58;16.75;15.75;11.00
69349;PMS5003;64554;43.452;4.934;2023-06-10T05:11:24;12.20;12.20;7.80
69349;PMS5003;64554;43.452;4.934;2023-06-10T05:13:51;13.00;12.60;7.60
69349;PMS5003;64554;43.452;4.934;2023-06-10T05:16:18;14.80;12.40;8.80
69349;PMS5003;64554;43.452;4.934;2023-06-10T05:18:44;13.25;13.00;8.25
69349;PMS5003;64554;43.452;4.934;2023-06-10T05:21:11;12.60;12.00;8.60
69349;PMS5003;64554;43.452;4.934;2023-06-10T05:23:38;16.00;15.00;7.75
69349;PMS5003;64554;43.452;4.934;2023-06-10T05:26:04;13.00;13.00;7.67
69349;PMS5003;64554;43.452;4.934;2023-06-10T05:28:31;15.60;11.60;8.80
69349;PMS5003;64554;43.452;4.934;2023-06-10T05:30:57;16.60;14.60;10.60
69349;PMS5003;64554;43.452;4.934;2023-06-10T05:33:24;19.00;17.50;9.25
69349;PMS5003;64554;43.452;4.934;2023-06-10T05:35:50;13.60;13.60;9.40
69349;PMS5003;64554;43.452;4.934;2023-06-10T05:38:17;13.50;10.75;6.75
69349;PMS5003;64554;43.452;4.934;2023-06-10T05:40:43;15.00;13.40;8.60
69349;PMS5003;64554;43.452;4.934;2023-06-10T05:43:10;13.40;13.40;8.40
69349;PMS5003;64554;43.452;4.934;2023-06-10T05:45:37;10.00;10.00;7.75
69349;PMS5003;64554;43.452;4.934;2023-06-10T05:48:04;13.40;12.40;9.00
69349;PMS5003;64554;43.452;4.934;2023-06-10T05:50:31;12.40;11.40;8.00
69349;PMS5003;64554;43.452;4.934;2023-06-10T05:53:01;11.40;9.40;6.40
69349;PMS5003;64554;43.452;4.934;2023-06-10T05:55:29;14.40;13.40;8.40
69349;PMS5003;64554;43.452;4.934;2023-06-10T05:57:58;13.00;12.40;8.00
69349;PMS5003;64554;43.452;4.934;2023-06-10T06:00:26;10.40;10.00;6.60
69349;PMS5003;64554;43.452;4.934;2023-06-10T06:02:53;12.60;12.60;8.40
69349;PMS5003;64554;43.452;4.934;2023-06-10T06:05:20;11.80;9.80;6.60
69349;PMS5003;64554;43.452;4.934;2023-06-10T06:07:47;9.80;8.80;6.80
69349;PMS5003;64554;43.452;4.934;2023-06-10T06:10:14;14.80;12.20;8.00
69349;PMS5003;64554;43.452;4.934;2023-06-10T06:12:40;10.80;10.80;7.80
69349;PMS5003;64554;43.452;4.934;2023-06-10T06:15:07;11.50;11.50;7.50
69349;PMS5003;64554;43.452;4.934;2023-06-10T06:17:35;10.00;8.00;6.00
69349;PMS5003;64554;43.452;4.934;2023-06-10T06:20:02;10.00;10.00;6.25
69349;PMS5003;64554;43.452;4.934;2023-06-10T06:22:29;14.00;12.50;7.25
69349;PMS5003;64554;43.452;4.934;2023-06-10T06:24:55;12.00;9.60;6.60
69349;PMS5003;64554;43.452;4.934;2023-06-10T06:27:22;9.75;9.75;5.75
69349;PMS5003;64554;43.452;4.934;2023-06-10T06:29:48;11.20;10.00;7.00
69349;PMS5003;64554;43.452;4.934;2023-06-10T06:32:17;11.25;9.25;6.25
69349;PMS5003;64554;43.452;4.934;2023-06-10T06:34:43;9.00;8.00;5.00
69349;PMS5003;64554;43.452;4.934;2023-06-10T06:37:10;9.40;7.00;5.00
69349;PMS5003;64554;43.452;4.934;2023-06-10T06:39:37;9.00;9.00;6.00
69349;PMS5003;64554;43.452;4.934;2023-06-10T06:42:03;11.00;10.25;7.00
69349;PMS5003;64554;43.452;4.934;2023-06-10T06:44:30;11.00;10.00;8.00
69349;PMS5003;64554;43.452;4.934;2023-06-10T06:46:56;11.00;10.00;7.00
69349;PMS5003;64554;43.452;4.934;2023-06-10T06:49:23;9.00;9.00;6.50
69349;PMS5003;64554;43.452;4.934;2023-06-10T06:51:49;8.00;8.00;5.20
69349;PMS5003;64554;43.452;4.934;2023-06-10T06:54:16;10.00;10.00;7.00
69349;PMS5003;64554;43.452;4.934;2023-06-10T06:56:42;9.50;7.00;4.00
69349;PMS5003;64554;43.452;4.934;2023-06-10T06:59:09;9.25;7.75;5.50
69349;PMS5003;64554;43.452;4.934;2023-06-10T07:01:36;13.60;13.60;5.80
69349;PMS5003;64554;43.452;4.934;2023-06-10T07:04:03;9.00;9.00;7.00
69349;PMS5003;64554;43.452;4.934;2023-06-10T07:06:29;13.00;11.00;7.60
69349;PMS5003;64554;43.452;4.934;2023-06-10T07:08:56;8.50;8.00;5.75
69349;PMS5003;64554;43.452;4.934;2023-06-10T07:11:23;7.25;6.50;5.00
69349;PMS5003;64554;43.452;4.934;2023-06-10T07:13:49;11.80;11.80;5.00
69349;PMS5003;64554;43.452;4.934;2023-06-10T07:16:16;12.00;9.25;7.00
69349;PMS5003;64554;43.452;4.934;2023-06-10T07:18:42;9.00;7.00;5.00
69349;PMS5003;64554;43.452;4.934;2023-06-10T07:21:09;11.40;11.40;7.40
69349;PMS5003;64554;43.452;4.934;2023-06-10T07:23:35;10.00;8.00;5.00
69349;PMS5003;64554;43.452;4.934;2023-06-10T07:26:02;9.75;9.25;5.75
69349;PMS5003;64554;43.452;4.934;2023-06-10T07:28:28;9.00;9.00;7.00
69349;PMS5003;64554;43.452;4.934;2023-06-10T07:30:55;10.40;10.40;7.20
69349;PMS5003;64554;43.452;4.934;2023-06-10T07:33:22;12.40;10.20;7.00
69349;PMS5003;64554;43.452;4.934;2023-06-10T07:35:49;12.00;12.00;8.67
69349;PMS5003;64554;43.452;4.934;2023-06-10T07:38:16;6.20;6.20;5.00
69349;PMS5003;64554;43.452;4.934;2023-06-10T07:40:43;10.00;8.60;6.00
69349;PMS5003;64554;43.452;4.934;2023-06-10T07:43:11;12.60;12.60;7.60
69349;PMS5003;64554;43.452;4.934;2023-06-10T07:45:41;9.25;9.25;7.25
69349;PMS5003;64554;43.452;4.934;2023-06-10T07:48:07;12.00;10.00;7.50
69349;PMS5003;64554;43.452;4.934;2023-06-10T07:50:34;13.50;11.25;7.25
69349;PMS5003;64554;43.452;4.934;2023-06-10T07:53:01;15.75;15.75;9.25
69349;PMS5003;64554;43.452;4.934;2023-06-10T07:55:28;15.00;11.00;8.00
69349;PMS5003;64554;43.452;4.934;2023-06-10T07:57:54;12.00;9.00;7.00
69349;PMS5003;64554;43.452;4.934;2023-06-10T08:00:21;13.80;11.80;8.60
69349;PMS5003;64554;43.452;4.934;2023-06-10T08:02:48;17.75;14.50;10.00
69349;PMS5003;64554;43.452;4.934;2023-06-10T08:05:15;11.00;9.50;7.00
69349;PMS5003;64554;43.452;4.934;2023-06-10T08:07:41;19.80;18.20;10.80
69349;PMS5003;64554;43.452;4.934;2023-06-10T08:10:08;10.80;10.80;7.80
69349;PMS5003;64554;43.452;4.934;2023-06-10T08:12:35;11.80;10.60;8.60
69349;PMS5003;64554;43.452;4.934;2023-06-10T08:15:02;13.75;11.25;10.00
69349;PMS5003;64554;43.452;4.934;2023-06-10T08:17:30;12.00;12.00;9.00
69349;PMS5003;64554;43.452;4.934;2023-06-10T08:19:57;13.00;13.00;9.50
69349;PMS5003;64554;43.452;4.934;2023-06-10T08:22:23;15.25;15.25;10.50
69349;PMS5003;64554;43.452;4.934;2023-06-10T08:24:50;19.50;19.50;11.00
69349;PMS5003;64554;43.452;4.934;2023-06-10T08:27:16;17.00;17.00;11.40
69349;PMS5003;64554;43.452;4.934;2023-06-10T08:29:43;20.50;18.00;12.00
69349;PMS5003;64554;43.452;4.934;2023-06-10T08:32:09;21.60;21.60;11.80
69349;PMS5003;64554;43.452;4.934;2023-06-10T08:34:36;17.00;17.00;12.00
69349;PMS5003;64554;43.452;4.934;2023-06-10T08:37:03;25.00;21.00;10.80
69349;PMS5003;64554;43.452;4.934;2023-06-10T08:39:29;19.40;17.00;12.00
69349;PMS5003;64554;43.452;4.934;2023-06-10T08:44:44;17.50;14.50;9.00
69349;PMS5003;64554;43.452;4.934;2023-06-10T08:47:15;17.40;15.20;9.80
69349;PMS5003;64554;43.452;4.934;2023-06-10T08:49:43;20.75;17.00;10.00
69349;PMS5003;64554;43.452;4.934;2023-06-10T08:52:14;8.40;8.40;5.60
69349;PMS5003;64554;43.452;4.934;2023-06-10T08:54:41;17.60;13.20;7.80
69349;PMS5003;64554;43.452;4.934;2023-06-10T08:57:09;18.00;16.80;12.00
69349;PMS5003;64554;43.452;4.934;2023-06-10T08:59:36;19.00;19.00;11.25
69349;PMS5003;64554;43.452;4.934;2023-06-10T09:02:03;20.40;16.40;10.60
69349;PMS5003;64554;43.452;4.934;2023-06-10T09:04:30;17.80;13.40;10.40
69349;PMS5003;64554;43.452;4.934;2023-06-10T09:06:57;15.40;14.80;9.00
69349;PMS5003;64554;43.452;4.934;2023-06-10T09:09:24;16.80;14.20;10.20
69349;PMS5003;64554;43.452;4.934;2023-06-10T09:11:51;17.80;16.40;11.20
69349;PMS5003;64554;43.452;4.934;2023-06-10T09:14:18;16.00;15.75;10.75
69349;PMS5003;64554;43.452;4.934;2023-06-10T09:16:44;18.00;17.00;10.00
69349;PMS5003;64554;43.452;4.934;2023-06-10T09:19:13;19.00;17.40;12.40
69349;PMS5003;64554;43.452;4.934;2023-06-10T09:21:40;18.20;13.40;10.00
69349;PMS5003;64554;43.452;4.934;2023-06-10T09:24:09;20.00;15.25;10.50
69349;PMS5003;64554;43.452;4.934;2023-06-10T09:26:36;19.60;19.60;13.20
69349;PMS5003;64554;43.452;4.934;2023-06-10T09:29:03;22.80;19.40;13.00
69349;PMS5003;64554;43.452;4.934;2023-06-10T09:31:30;23.00;20.00;15.00
69349;PMS5003;64554;43.452;4.934;2023-06-10T09:34:07;20.80;20.80;13.80
69349;PMS5003;64554;43.452;4.934;2023-06-10T09:36:35;19.60;18.60;13.00
69349;PMS5003;64554;43.452;4.934;2023-06-10T09:39:02;19.00;19.00;12.00
69349;PMS5003;64554;43.452;4.934;2023-06-10T09:41:35;23.00;22.75;13.25
69349;PMS5003;64554;43.452;4.934;2023-06-10T09:44:14;17.20;16.20;8.60
69349;PMS5003;64554;43.452;4.934;2023-06-10T09:46:41;22.75;21.25;12.25
69349;PMS5003;64554;43.452;4.934;2023-06-10T09:49:08;18.20;17.60;10.60
69349;PMS5003;64554;43.452;4.934;2023-06-10T09:51:35;23.25;20.25;12.00
69349;PMS5003;64554;43.452;4.934;2023-06-10T09:54:03;22.00;18.00;11.50
69349;PMS5003;64554;43.452;4.934;2023-06-10T09:56:36;16.00;14.20;9.20
69349;PMS5003;64554;43.452;4.934;2023-06-10T09:59:03;21.50;20.50;10.50
69349;PMS5003;64554;43.452;4.934;2023-06-10T10:01:32;17.60;17.60;12.00
69349;PMS5003;64554;43.452;4.934;2023-06-10T10:03:59;21.60;20.60;11.60
69349;PMS5003;64554;43.452;4.934;2023-06-10T10:06:27;15.40;14.00;9.40
69349;PMS5003;64554;43.452;4.934;2023-06-10T10:08:54;19.75;15.25;10.25
69349;PMS5003;64554;43.452;4.934;2023-06-10T10:11:21;21.00;16.00;10.00
69349;PMS5003;64554;43.452;4.934;2023-06-10T10:13:49;16.40;16.20;10.80
69349;PMS5003;64554;43.452;4.934;2023-06-10T10:16:17;20.50;18.00;9.50
69349;PMS5003;64554;43.452;4.934;2023-06-10T10:18:59;20.00;18.60;10.60
69349;PMS5003;64554;43.452;4.934;2023-06-10T10:21:29;20.00;20.00;10.50
69349;PMS5003;64554;43.452;4.934;2023-06-10T10:26:25;15.50;14.50;9.00
69349;PMS5003;64554;43.452;4.934;2023-06-10T10:28:58;15.50;12.25;9.00
69349;PMS5003;64554;43.452;4.934;2023-06-10T10:31:30;16.60;13.60;8.80
69349;PMS5003;64554;43.452;4.934;2023-06-10T10:33:59;11.75;11.00;8.00
69349;PMS5003;64554;43.452;4.934;2023-06-10T10:36:28;14.40;14.00;9.40
69349;PMS5003;64554;43.452;4.934;2023-06-10T10:38:55;17.40;17.40;8.80
69349;PMS5003;64554;43.452;4.934;2023-06-10T10:41:22;14.50;13.50;9.75
69349;PMS5003;64554;43.452;4.934;2023-06-10T10:43:50;12.40;11.20;9.00
69349;PMS5003;64554;43.452;4.934;2023-06-10T10:46:18;14.00;13.00;9.00
69349;PMS5003;64554;43.452;4.934;2023-06-10T10:48:44;17.40;15.00;10.80
69349;PMS5003;64554;43.452;4.934;2023-06-10T10:51:12;11.40;11.40;8.20
69349;PMS5003;64554;43.452;4.934;2023-06-10T10:53:41;15.00;14.00;8.50
69349;PMS5003;64554;43.452;4.934;2023-06-10T10:56:14;12.75;12.75;9.75
69349;PMS5003;64554;43.452;4.934;2023-06-10T10:58:41;15.00;15.00;10.40
69349;PMS5003;64554;43.452;4.934;2023-06-10T11:01:11;16.80;14.40;10.00
69349;PMS5003;64554;43.452;4.934;2023-06-10T11:03:42;14.60;14.60;10.00
69349;PMS5003;64554;43.452;4.934;2023-06-10T11:06:11;20.00;18.00;11.00
69349;PMS5003;64554;43.452;4.934;2023-06-10T11:08:46;13.50;13.50;9.00
69349;PMS5003;64554;43.452;4.934;2023-06-10T11:11:17;23.60;19.60;10.60
69349;PMS5003;64554;43.452;4.934;2023-06-10T11:13:57;17.40;14.60;9.00
69349;PMS5003;64554;43.452;4.934;2023-06-10T11:16:27;17.00;16.50;10.50
69349;PMS5003;64554;43.452;4.934;2023-06-10T11:18:54;18.25;16.25;10.25
69349;PMS5003;64554;43.452;4.934;2023-06-10T11:21:23;17.20;17.20;9.60
69349;PMS5003;64554;43.452;4.934;2023-06-10T11:23:53;15.00;15.00;11.00
69349;PMS5003;64554;43.452;4.934;2023-06-10T11:31:27;16.00;16.00;11.00
69349;PMS5003;64554;43.452;4.934;2023-06-10T11:33:55;16.00;15.00;9.50
69349;PMS5003;64554;43.452;4.934;2023-06-10T11:36:22;19.50;19.50;11.00
69349;PMS5003;64554;43.452;4.934;2023-06-10T11:38:49;13.60;12.60;8.60
69349;PMS5003;64554;43.452;4.934;2023-06-10T11:41:17;19.80;16.60;9.80
69349;PMS5003;64554;43.452;4.934;2023-06-10T11:43:44;16.25;15.25;9.75
69349;PMS5003;64554;43.452;4.934;2023-06-10T11:46:11;23.50;20.00;10.00
69349;PMS5003;64554;43.452;4.934;2023-06-10T11:48:38;14.20;14.20;11.20
69349;PMS5003;64554;43.452;4.934;2023-06-10T11:51:08;12.75;12.75;8.50
69349;PMS5003;64554;43.452;4.934;2023-06-10T11:53:35;17.33;16.00;9.33
69349;PMS5003;64554;43.452;4.934;2023-06-10T11:56:01;17.75;13.25;9.50
69349;PMS5003;64554;43.452;4.934;2023-06-10T11:58:28;18.60;16.20;8.60
69349;PMS5003;64554;43.452;4.934;2023-06-10T12:00:55;18.00;14.40;9.00
69349;PMS5003;64554;43.452;4.934;2023-06-10T12:03:25;15.33;14.33;11.33
69349;PMS5003;64554;43.452;4.934;2023-06-10T12:05:58;14.25;14.25;10.50
69349;PMS5003;64554;43.452;4.934;2023-06-10T12:08:25;13.00;13.00;9.60
69349;PMS5003;64554;43.452;4.934;2023-06-10T12:10:51;12.40;11.40;8.40
69349;PMS5003;64554;43.452;4.934;2023-06-10T12:13:18;13.40;12.40;8.40
69349;PMS5003;64554;43.452;4.934;2023-06-10T12:15:45;15.25;12.00;8.00
69349;PMS5003;64554;43.452;4.934;2023-06-10T12:18:15;12.50;12.00;7.50
69349;PMS5003;64554;43.452;4.934;2023-06-10T12:20:42;17.20;14.20;10.00
69349;PMS5003;64554;43.452;4.934;2023-06-10T12:23:09;15.00;13.80;10.00
69349;PMS5003;64554;43.452;4.934;2023-06-10T12:25:36;13.75;12.75;9.75
69349;PMS5003;64554;43.452;4.934;2023-06-10T12:28:09;17.00;16.00;8.75
69349;PMS5003;64554;43.452;4.934;2023-06-10T12:30:36;16.40;15.00;9.60
69349;PMS5003;64554;43.452;4.934;2023-06-10T12:33:03;10.80;10.80;7.80
69349;PMS5003;64554;43.452;4.934;2023-06-10T12:35:29;14.60;11.60;7.60
69349;PMS5003;64554;43.452;4.934;2023-06-10T12:40:27;14.00;11.33;7.33
69349;PMS5003;64554;43.452;4.934;2023-06-10T12:42:55;12.50;12.50;9.00
69349;PMS5003;64554;43.452;4.934;2023-06-10T12:45:35;10.50;10.50;8.50
69349;PMS5003;64554;43.452;4.934;2023-06-10T12:48:21;13.75;12.75;8.75
69349;PMS5003;64554;43.452;4.934;2023-06-10T12:50:55;15.00;12.50;8.75
69349;PMS5003;64554;43.452;4.934;2023-06-10T12:53:22;12.40;12.40;9.40
69349;PMS5003;64554;43.452;4.934;2023-06-10T12:55:49;12.00;11.33;8.00
69349;PMS5003;64554;43.452;4.934;2023-06-10T12:58:16;12.80;12.80;8.00
69349;PMS5003;64554;43.452;4.934;2023-06-10T13:00:43;12.75;12.00;10.00
69349;PMS5003;64554;43.452;4.934;2023-06-10T13:03:11;13.60;11.60;8.60
69349;PMS5003;64554;43.452;4.934;2023-06-10T13:05:38;13.00;11.00;7.50
69349;PMS5003;64554;43.452;4.934;2023-06-10T13:08:08;12.75;12.75;8.75
69349;PMS5003;64554;43.452;4.934;2023-06-10T13:10:36;11.40;11.40;8.40
69349;PMS5003;64554;43.452;4.934;2023-06-10T13:13:03;16.50;16.50;7.75
69349;PMS5003;64554;43.452;4.934;2023-06-10T13:15:32;13.00;11.00;8.00
69349;PMS5003;64554;43.452;4.934;2023-06-10T13:18:08;14.00;11.00;7.80
69349;PMS5003;64554;43.452;4.934;2023-06-10T13:20:35;11.60;10.00;7.20
69349;PMS5003;64554;43.452;4.934;2023-06-10T13:23:02;11.00;11.00;7.00
69349;PMS5003;64554;43.452;4.934;2023-06-10T13:25:29;11.80;11.80;7.00
69349;PMS5003;64554;43.452;4.934;2023-06-10T13:27:55;13.60;12.60;8.00
69349;PMS5003;64554;43.452;4.934;2023-06-10T13:30:22;12.80;10.80;7.00
69349;PMS5003;64554;43.452;4.934;2023-06-10T13:32:49;12.00;10.20;8.00
69349;PMS5003;64554;43.452;4.934;2023-06-10T13:35:15;12.00;11.40;7.40
69349;PMS5003;64554;43.452;4.934;2023-06-10T13:37:42;12.50;12.50;7.00
69349;PMS5003;64554;43.452;4.934;2023-06-10T13:40:09;16.00;14.00;9.25
69349;PMS5003;64554;43.452;4.934;2023-06-10T13:42:36;12.00;12.00;6.40
69349;PMS5003;64554;43.452;4.934;2023-06-10T13:45:03;12.20;10.60;6.00
69349;PMS5003;64554;43.452;4.934;2023-06-10T13:47:30;11.00;11.00;8.50
69349;PMS5003;64554;43.452;4.934;2023-06-10T13:49:57;13.25;10.25;6.25
69349;PMS5003;64554;43.452;4.934;2023-06-10T13:52:23;12.00;10.00;6.50
69349;PMS5003;64554;43.452;4.934;2023-06-10T13:54:50;14.00;12.00;9.40
69349;PMS5003;64554;43.452;4.934;2023-06-10T13:57:16;10.00;9.00;5.50
69349;PMS5003;64554;43.452;4.934;2023-06-10T13:59:43;8.60;8.60;6.40
69349;PMS5003;64554;43.452;4.934;2023-06-10T14:02:10;15.25;14.25;8.75
69349;PMS5003;64554;43.452;4.934;2023-06-10T14:04:37;11.60;11.40;8.00
69349;PMS5003;64554;43.452;4.934;2023-06-10T14:07:03;12.40;10.80;7.40
69349;PMS5003;64554;43.452;4.934;2023-06-10T14:09:30;10.00;10.00;6.80
69349;PMS5003;64554;43.452;4.934;2023-06-10T14:11:56;8.00;8.00;5.00
69349;PMS5003;64554;43.452;4.934;2023-06-10T14:14:23;10.75;10.75;6.75